sensor_id;sensor_type;location;lat;lon;timestamp;P1;durP1;ratioP1;P2;durP2;ratioP2
78931;SDS011;68331;53.362;55.932;2023-05-10T00:00:08;31.52;;;19.75;;
78931;SDS011;68331;53.362;55.932;2023-05-10T00:02:42;29.23;;;17.38;;
78931;SDS011;68331;53.362;55.932;2023-05-10T00:05:08;25.65;;;18.65;;
78931;SDS011;68331;53.362;55.932;2023-05-10T00:07:34;26.00;;;17.75;;
78931;SDS011;68331;53.362;55.932;2023-05-10T00:10:00;31.52;;;19.73;;
78931;SDS011;68331;53.362;55.932;2023-05-10T00:12:26;28.95;;;18.27;;
78931;SDS011;68331;53.362;55.932;2023-05-10T00:14:52;34.03;;;21.05;;
78931;SDS011;68331;53.362;55.932;2023-05-10T00:17:18;29.88;;;17.88;;
78931;SDS011;68331;53.362;55.932;2023-05-10T00:19:44;30.25;;;18.80;;
78931;SDS011;68331;53.362;55.932;2023-05-10T00:22:10;28.48;;;19.63;;
78931;SDS011;68331;53.362;55.932;2023-05-10T00:24:36;30.33;;;18.75;;
78931;SDS011;68331;53.362;55.932;2023-05-10T00:27:02;28.00;;;19.00;;
78931;SDS011;68331;53.362;55.932;2023-05-10T00:29:29;28.85;;;20.90;;
78931;SDS011;68331;53.362;55.932;2023-05-10T00:31:55;29.63;;;18.58;;
78931;SDS011;68331;53.362;55.932;2023-05-10T00:34:21;29.45;;;20.10;;
78931;SDS011;68331;53.362;55.932;2023-05-10T00:36:47;29.15;;;20.98;;
78931;SDS011;68331;53.362;55.932;2023-05-10T00:39:13;30.67;;;18.23;;
78931;SDS011;68331;53.362;55.932;2023-05-10T00:41:39;28.50;;;20.95;;
78931;SDS011;68331;53.362;55.932;2023-05-10T00:44:06;28.05;;;17.38;;
78931;SDS011;68331;53.362;55.932;2023-05-10T00:46:32;30.10;;;20.60;;
78931;SDS011;68331;53.362;55.932;2023-05-10T00:48:58;30.00;;;20.77;;
78931;SDS011;68331;53.362;55.932;2023-05-10T00:51:25;31.23;;;20.20;;
78931;SDS011;68331;53.362;55.932;2023-05-10T00:53:51;29.02;;;19.45;;
78931;SDS011;68331;53.362;55.932;2023-05-10T00:56:17;29.52;;;19.38;;
78931;SDS011;68331;53.362;55.932;2023-05-10T00:58:46;25.98;;;18.90;;
78931;SDS011;68331;53.362;55.932;2023-05-10T01:01:11;29.52;;;19.67;;
78931;SDS011;68331;53.362;55.932;2023-05-10T01:03:38;27.77;;;19.88;;
78931;SDS011;68331;53.362;55.932;2023-05-10T01:06:05;30.17;;;20.35;;
78931;SDS011;68331;53.362;55.932;2023-05-10T01:08:31;28.05;;;19.13;;
78931;SDS011;68331;53.362;55.932;2023-05-10T01:10:58;27.38;;;17.45;;
78931;SDS011;68331;53.362;55.932;2023-05-10T01:13:37;29.20;;;18.08;;
78931;SDS011;68331;53.362;55.932;2023-05-10T01:16:08;28.95;;;20.58;;
78931;SDS011;68331;53.362;55.932;2023-05-10T01:18:40;29.90;;;17.27;;
78931;SDS011;68331;53.362;55.932;2023-05-10T01:21:27;29.88;;;19.15;;
78931;SDS011;68331;53.362;55.932;2023-05-10T01:24:05;31.40;;;20.02;;
78931;SDS011;68331;53.362;55.932;2023-05-10T01:27:17;30.50;;;19.48;;
78931;SDS011;68331;53.362;55.932;2023-05-10T01:37:45;29.23;;;19.17;;
78931;SDS011;68331;53.362;55.932;2023-05-10T01:40:19;29.48;;;18.05;;
78931;SDS011;68331;53.362;55.932;2023-05-10T01:43:03;29.45;;;16.90;;
78931;SDS011;68331;53.362;55.932;2023-05-10T01:45:34;28.92;;;16.65;;
78931;SDS011;68331;53.362;55.932;2023-05-10T01:48:08;32.90;;;19.20;;
78931;SDS011;68331;53.362;55.932;2023-05-10T01:50:36;28.17;;;18.75;;
78931;SDS011;68331;53.362;55.932;2023-05-10T01:53:06;30.75;;;16.90;;
78931;SDS011;68331;53.362;55.932;2023-05-10T01:55:35;25.27;;;16.63;;
78931;SDS011;68331;53.362;55.932;2023-05-10T01:58:18;29.80;;;18.05;;
78931;SDS011;68331;53.362;55.932;2023-05-10T02:00:49;29.05;;;19.20;;
78931;SDS011;68331;53.362;55.932;2023-05-10T02:03:18;27.25;;;16.90;;
78931;SDS011;68331;53.362;55.932;2023-05-10T02:05:48;26.92;;;17.20;;
78931;SDS011;68331;53.362;55.932;2023-05-10T02:08:16;32.25;;;19.88;;
78931;SDS011;68331;53.362;55.932;2023-05-10T02:10:45;30.50;;;19.50;;
78931;SDS011;68331;53.362;55.932;2023-05-10T02:13:13;31.27;;;18.15;;
78931;SDS011;68331;53.362;55.932;2023-05-10T02:15:42;30.88;;;18.92;;
78931;SDS011;68331;53.362;55.932;2023-05-10T02:18:11;29.02;;;17.50;;
78931;SDS011;68331;53.362;55.932;2023-05-10T02:20:41;30.90;;;19.70;;
78931;SDS011;68331;53.362;55.932;2023-05-10T02:23:08;24.73;;;17.08;;
78931;SDS011;68331;53.362;55.932;2023-05-10T02:25:36;30.85;;;18.15;;
78931;SDS011;68331;53.362;55.932;2023-05-10T02:28:04;30.83;;;19.92;;
78931;SDS011;68331;53.362;55.932;2023-05-10T02:30:35;29.70;;;19.77;;
78931;SDS011;68331;53.362;55.932;2023-05-10T02:33:01;27.63;;;19.42;;
78931;SDS011;68331;53.362;55.932;2023-05-10T02:35:31;24.58;;;17.00;;
78931;SDS011;68331;53.362;55.932;2023-05-10T02:37:59;37.70;;;18.80;;
78931;SDS011;68331;53.362;55.932;2023-05-10T02:40:28;33.65;;;20.00;;
78931;SDS011;68331;53.362;55.932;2023-05-10T02:42:56;29.02;;;17.48;;
78931;SDS011;68331;53.362;55.932;2023-05-10T02:45:25;34.47;;;19.50;;
78931;SDS011;68331;53.362;55.932;2023-05-10T02:47:54;30.40;;;16.63;;
78931;SDS011;68331;53.362;55.932;2023-05-10T02:50:22;32.70;;;19.27;;
78931;SDS011;68331;53.362;55.932;2023-05-10T02:52:51;31.45;;;20.73;;
78931;SDS011;68331;53.362;55.932;2023-05-10T02:55:22;30.67;;;20.48;;
78931;SDS011;68331;53.362;55.932;2023-05-10T02:58:01;33.08;;;19.88;;
78931;SDS011;68331;53.362;55.932;2023-05-10T03:00:28;32.70;;;22.35;;
78931;SDS011;68331;53.362;55.932;2023-05-10T03:02:54;35.78;;;19.77;;
78931;SDS011;68331;53.362;55.932;2023-05-10T03:05:20;35.17;;;18.77;;
78931;SDS011;68331;53.362;55.932;2023-05-10T03:07:47;31.70;;;19.52;;
78931;SDS011;68331;53.362;55.932;2023-05-10T03:10:14;32.20;;;20.85;;
78931;SDS011;68331;53.362;55.932;2023-05-10T03:12:47;36.03;;;20.05;;
78931;SDS011;68331;53.362;55.932;2023-05-10T03:18:10;38.22;;;22.08;;
78931;SDS011;68331;53.362;55.932;2023-05-10T03:20:42;36.22;;;20.55;;
78931;SDS011;68331;53.362;55.932;2023-05-10T03:23:21;31.90;;;20.73;;
78931;SDS011;68331;53.362;55.932;2023-05-10T03:26:00;32.70;;;20.48;;
78931;SDS011;68331;53.362;55.932;2023-05-10T03:28:29;34.20;;;23.02;;
78931;SDS011;68331;53.362;55.932;2023-05-10T03:30:57;34.53;;;20.83;;
78931;SDS011;68331;53.362;55.932;2023-05-10T03:33:25;32.42;;;21.27;;
78931;SDS011;68331;53.362;55.932;2023-05-10T03:35:52;32.80;;;21.02;;
78931;SDS011;68331;53.362;55.932;2023-05-10T03:38:18;34.58;;;22.38;;
78931;SDS011;68331;53.362;55.932;2023-05-10T03:40:45;33.10;;;22.05;;
78931;SDS011;68331;53.362;55.932;2023-05-10T03:43:11;37.25;;;21.88;;
78931;SDS011;68331;53.362;55.932;2023-05-10T03:45:37;33.00;;;21.38;;
78931;SDS011;68331;53.362;55.932;2023-05-10T03:48:03;37.03;;;22.63;;
78931;SDS011;68331;53.362;55.932;2023-05-10T03:50:30;32.28;;;21.70;;
78931;SDS011;68331;53.362;55.932;2023-05-10T03:52:56;31.95;;;20.33;;
78931;SDS011;68331;53.362;55.932;2023-05-10T03:55:23;29.33;;;18.10;;
78931;SDS011;68331;53.362;55.932;2023-05-10T03:57:49;31.10;;;19.67;;
78931;SDS011;68331;53.362;55.932;2023-05-10T04:00:16;28.50;;;19.15;;
78931;SDS011;68331;53.362;55.932;2023-05-10T04:02:42;28.65;;;19.42;;
78931;SDS011;68331;53.362;55.932;2023-05-10T04:05:12;31.13;;;20.55;;
78931;SDS011;68331;53.362;55.932;2023-05-10T04:07:38;30.73;;;18.17;;
78931;SDS011;68331;53.362;55.932;2023-05-10T04:10:04;30.00;;;17.90;;
78931;SDS011;68331;53.362;55.932;2023-05-10T04:12:31;30.48;;;20.95;;
78931;SDS011;68331;53.362;55.932;2023-05-10T04:14:57;29.92;;;20.13;;
78931;SDS011;68331;53.362;55.932;2023-05-10T04:17:23;37.33;;;20.50;;
78931;SDS011;68331;53.362;55.932;2023-05-10T04:19:49;30.58;;;21.30;;
78931;SDS011;68331;53.362;55.932;2023-05-10T04:22:18;30.17;;;19.55;;
78931;SDS011;68331;53.362;55.932;2023-05-10T04:24:44;29.05;;;19.45;;
78931;SDS011;68331;53.362;55.932;2023-05-10T04:27:10;34.22;;;20.05;;
78931;SDS011;68331;53.362;55.932;2023-05-10T04:29:36;31.70;;;20.98;;
78931;SDS011;68331;53.362;55.932;2023-05-10T04:32:03;26.25;;;19.17;;
78931;SDS011;68331;53.362;55.932;2023-05-10T04:34:30;29.42;;;19.83;;
78931;SDS011;68331;53.362;55.932;2023-05-10T04:36:56;30.08;;;17.83;;
78931;SDS011;68331;53.362;55.932;2023-05-10T04:39:22;29.75;;;19.27;;
78931;SDS011;68331;53.362;55.932;2023-05-10T04:41:48;30.30;;;18.85;;
78931;SDS011;68331;53.362;55.932;2023-05-10T04:44:14;28.50;;;20.98;;
78931;SDS011;68331;53.362;55.932;2023-05-10T04:46:40;31.20;;;20.55;;
78931;SDS011;68331;53.362;55.932;2023-05-10T04:49:06;30.25;;;20.05;;
78931;SDS011;68331;53.362;55.932;2023-05-10T04:51:31;30.73;;;20.92;;
78931;SDS011;68331;53.362;55.932;2023-05-10T04:53:58;35.50;;;20.02;;
78931;SDS011;68331;53.362;55.932;2023-05-10T04:56:24;31.23;;;20.05;;
78931;SDS011;68331;53.362;55.932;2023-05-10T04:58:50;36.65;;;21.25;;
78931;SDS011;68331;53.362;55.932;2023-05-10T05:01:16;35.28;;;21.77;;
78931;SDS011;68331;53.362;55.932;2023-05-10T05:03:42;33.28;;;22.13;;
78931;SDS011;68331;53.362;55.932;2023-05-10T05:06:07;39.35;;;23.17;;
78931;SDS011;68331;53.362;55.932;2023-05-10T05:08:33;29.63;;;19.02;;
78931;SDS011;68331;53.362;55.932;2023-05-10T05:10:59;36.42;;;20.10;;
78931;SDS011;68331;53.362;55.932;2023-05-10T05:13:26;30.83;;;21.67;;
78931;SDS011;68331;53.362;55.932;2023-05-10T05:15:52;36.03;;;22.05;;
78931;SDS011;68331;53.362;55.932;2023-05-10T05:18:18;35.72;;;22.05;;
78931;SDS011;68331;53.362;55.932;2023-05-10T05:20:44;31.13;;;21.25;;
78931;SDS011;68331;53.362;55.932;2023-05-10T05:23:10;41.10;;;25.42;;
78931;SDS011;68331;53.362;55.932;2023-05-10T05:25:36;33.35;;;20.00;;
78931;SDS011;68331;53.362;55.932;2023-05-10T05:28:02;37.08;;;23.33;;
78931;SDS011;68331;53.362;55.932;2023-05-10T05:30:29;37.45;;;23.00;;
78931;SDS011;68331;53.362;55.932;2023-05-10T05:32:55;35.00;;;22.75;;
78931;SDS011;68331;53.362;55.932;2023-05-10T05:35:21;34.90;;;23.27;;
78931;SDS011;68331;53.362;55.932;2023-05-10T05:37:48;40.50;;;24.92;;
78931;SDS011;68331;53.362;55.932;2023-05-10T05:40:14;36.33;;;24.10;;
78931;SDS011;68331;53.362;55.932;2023-05-10T05:42:40;37.63;;;25.25;;
78931;SDS011;68331;53.362;55.932;2023-05-10T05:45:06;41.58;;;25.13;;
78931;SDS011;68331;53.362;55.932;2023-05-10T05:47:34;39.30;;;26.38;;
78931;SDS011;68331;53.362;55.932;2023-05-10T05:50:00;37.75;;;26.23;;
78931;SDS011;68331;53.362;55.932;2023-05-10T05:52:26;40.38;;;26.15;;
78931;SDS011;68331;53.362;55.932;2023-05-10T05:54:52;41.33;;;26.90;;
78931;SDS011;68331;53.362;55.932;2023-05-10T05:57:18;39.92;;;27.73;;
78931;SDS011;68331;53.362;55.932;2023-05-10T05:59:44;42.22;;;27.70;;
78931;SDS011;68331;53.362;55.932;2023-05-10T06:02:11;39.70;;;25.23;;
78931;SDS011;68331;53.362;55.932;2023-05-10T06:04:37;41.20;;;28.15;;
78931;SDS011;68331;53.362;55.932;2023-05-10T06:07:03;43.65;;;28.75;;
78931;SDS011;68331;53.362;55.932;2023-05-10T06:09:29;41.97;;;29.30;;
78931;SDS011;68331;53.362;55.932;2023-05-10T06:11:54;47.42;;;28.90;;
78931;SDS011;68331;53.362;55.932;2023-05-10T06:14:21;47.92;;;30.42;;
78931;SDS011;68331;53.362;55.932;2023-05-10T06:16:47;45.95;;;29.23;;
78931;SDS011;68331;53.362;55.932;2023-05-10T06:19:13;47.20;;;29.70;;
78931;SDS011;68331;53.362;55.932;2023-05-10T06:21:39;44.88;;;29.60;;
78931;SDS011;68331;53.362;55.932;2023-05-10T06:24:05;41.35;;;30.05;;
78931;SDS011;68331;53.362;55.932;2023-05-10T06:26:32;46.35;;;29.65;;
78931;SDS011;68331;53.362;55.932;2023-05-10T06:28:59;46.50;;;30.23;;
78931;SDS011;68331;53.362;55.932;2023-05-10T06:31:25;47.33;;;31.35;;
78931;SDS011;68331;53.362;55.932;2023-05-10T06:33:51;45.75;;;28.55;;
78931;SDS011;68331;53.362;55.932;2023-05-10T06:36:17;45.78;;;28.13;;
78931;SDS011;68331;53.362;55.932;2023-05-10T06:38:43;42.78;;;30.02;;
78931;SDS011;68331;53.362;55.932;2023-05-10T06:41:09;44.50;;;27.67;;
78931;SDS011;68331;53.362;55.932;2023-05-10T06:43:36;48.08;;;31.95;;
78931;SDS011;68331;53.362;55.932;2023-05-10T06:46:05;46.42;;;32.08;;
78931;SDS011;68331;53.362;55.932;2023-05-10T06:48:32;47.33;;;30.27;;
78931;SDS011;68331;53.362;55.932;2023-05-10T06:50:58;47.50;;;31.70;;
78931;SDS011;68331;53.362;55.932;2023-05-10T06:53:24;50.72;;;31.83;;
78931;SDS011;68331;53.362;55.932;2023-05-10T06:55:50;49.00;;;30.45;;
78931;SDS011;68331;53.362;55.932;2023-05-10T06:58:17;45.83;;;31.27;;
78931;SDS011;68331;53.362;55.932;2023-05-10T07:00:43;46.88;;;30.75;;
78931;SDS011;68331;53.362;55.932;2023-05-10T07:03:11;46.05;;;31.67;;
78931;SDS011;68331;53.362;55.932;2023-05-10T07:05:37;46.55;;;31.75;;
78931;SDS011;68331;53.362;55.932;2023-05-10T07:08:03;50.40;;;32.15;;
78931;SDS011;68331;53.362;55.932;2023-05-10T07:10:29;52.00;;;33.45;;
78931;SDS011;68331;53.362;55.932;2023-05-10T07:12:55;48.47;;;32.72;;
78931;SDS011;68331;53.362;55.932;2023-05-10T07:15:21;53.08;;;31.95;;
78931;SDS011;68331;53.362;55.932;2023-05-10T07:17:47;51.97;;;33.17;;
78931;SDS011;68331;53.362;55.932;2023-05-10T07:20:13;52.42;;;32.65;;
78931;SDS011;68331;53.362;55.932;2023-05-10T07:22:39;51.75;;;32.67;;
78931;SDS011;68331;53.362;55.932;2023-05-10T07:25:06;53.97;;;33.70;;
78931;SDS011;68331;53.362;55.932;2023-05-10T07:27:32;50.67;;;33.80;;
78931;SDS011;68331;53.362;55.932;2023-05-10T07:29:58;49.67;;;31.90;;
78931;SDS011;68331;53.362;55.932;2023-05-10T07:32:24;44.70;;;28.95;;
78931;SDS011;68331;53.362;55.932;2023-05-10T07:34:50;53.45;;;31.60;;
78931;SDS011;68331;53.362;55.932;2023-05-10T07:37:16;50.60;;;34.33;;
78931;SDS011;68331;53.362;55.932;2023-05-10T07:39:42;53.85;;;33.10;;
78931;SDS011;68331;53.362;55.932;2023-05-10T07:42:08;55.03;;;34.33;;
78931;SDS011;68331;53.362;55.932;2023-05-10T07:44:34;52.88;;;32.83;;
78931;SDS011;68331;53.362;55.932;2023-05-10T07:47:01;53.15;;;33.92;;
78931;SDS011;68331;53.362;55.932;2023-05-10T07:49:27;51.00;;;34.15;;
78931;SDS011;68331;53.362;55.932;2023-05-10T07:51:52;49.28;;;33.28;;
78931;SDS011;68331;53.362;55.932;2023-05-10T07:54:18;51.05;;;32.00;;
78931;SDS011;68331;53.362;55.932;2023-05-10T07:56:44;57.10;;;34.33;;
78931;SDS011;68331;53.362;55.932;2023-05-10T07:59:17;50.50;;;34.67;;
78931;SDS011;68331;53.362;55.932;2023-05-10T08:01:44;56.35;;;35.83;;
78931;SDS011;68331;53.362;55.932;2023-05-10T08:04:10;49.38;;;33.58;;
78931;SDS011;68331;53.362;55.932;2023-05-10T08:06:37;52.67;;;34.22;;
78931;SDS011;68331;53.362;55.932;2023-05-10T08:09:03;50.10;;;35.03;;
78931;SDS011;68331;53.362;55.932;2023-05-10T08:11:29;54.78;;;35.40;;
78931;SDS011;68331;53.362;55.932;2023-05-10T08:13:55;48.58;;;34.22;;
78931;SDS011;68331;53.362;55.932;2023-05-10T08:16:21;47.70;;;33.08;;
78931;SDS011;68331;53.362;55.932;2023-05-10T08:18:48;49.97;;;33.72;;
78931;SDS011;68331;53.362;55.932;2023-05-10T08:21:16;51.17;;;31.90;;
78931;SDS011;68331;53.362;55.932;2023-05-10T08:23:42;53.35;;;33.47;;
78931;SDS011;68331;53.362;55.932;2023-05-10T08:26:11;46.75;;;32.33;;
78931;SDS011;68331;53.362;55.932;2023-05-10T08:28:37;56.80;;;32.70;;
78931;SDS011;68331;53.362;55.932;2023-05-10T08:31:03;46.65;;;32.13;;
78931;SDS011;68331;53.362;55.932;2023-05-10T08:33:30;49.83;;;32.80;;
78931;SDS011;68331;53.362;55.932;2023-05-10T08:35:56;42.05;;;29.98;;
78931;SDS011;68331;53.362;55.932;2023-05-10T08:38:22;41.75;;;27.92;;
78931;SDS011;68331;53.362;55.932;2023-05-10T08:40:48;43.25;;;29.55;;
78931;SDS011;68331;53.362;55.932;2023-05-10T08:43:16;43.85;;;29.58;;
78931;SDS011;68331;53.362;55.932;2023-05-10T08:45:43;44.67;;;28.65;;
78931;SDS011;68331;53.362;55.932;2023-05-10T08:48:13;42.75;;;26.65;;
78931;SDS011;68331;53.362;55.932;2023-05-10T08:55:37;39.15;;;25.30;;
78931;SDS011;68331;53.362;55.932;2023-05-10T09:00:31;34.80;;;25.23;;
78931;SDS011;68331;53.362;55.932;2023-05-10T09:02:58;32.92;;;23.05;;
78931;SDS011;68331;53.362;55.932;2023-05-10T09:05:24;35.15;;;24.60;;
78931;SDS011;68331;53.362;55.932;2023-05-10T09:07:51;35.72;;;25.15;;
78931;SDS011;68331;53.362;55.932;2023-05-10T09:10:17;41.33;;;25.35;;
78931;SDS011;68331;53.362;55.932;2023-05-10T09:12:44;34.75;;;25.17;;
78931;SDS011;68331;53.362;55.932;2023-05-10T09:15:11;35.22;;;25.23;;
78931;SDS011;68331;53.362;55.932;2023-05-10T09:17:40;34.78;;;25.80;;
78931;SDS011;68331;53.362;55.932;2023-05-10T09:20:07;36.85;;;25.60;;
78931;SDS011;68331;53.362;55.932;2023-05-10T09:22:34;31.35;;;23.80;;
78931;SDS011;68331;53.362;55.932;2023-05-10T09:25:10;30.92;;;23.02;;
78931;SDS011;68331;53.362;55.932;2023-05-10T09:27:38;33.92;;;23.25;;
78931;SDS011;68331;53.362;55.932;2023-05-10T09:30:06;32.53;;;23.35;;
78931;SDS011;68331;53.362;55.932;2023-05-10T09:32:39;39.38;;;24.10;;
78931;SDS011;68331;53.362;55.932;2023-05-10T09:37:35;51.22;;;25.05;;
78931;SDS011;68331;53.362;55.932;2023-05-10T09:40:04;28.23;;;22.92;;
78931;SDS011;68331;53.362;55.932;2023-05-10T09:42:31;30.70;;;23.35;;
78931;SDS011;68331;53.362;55.932;2023-05-10T09:45:01;33.60;;;22.02;;
78931;SDS011;68331;53.362;55.932;2023-05-10T09:47:32;34.90;;;24.25;;
78931;SDS011;68331;53.362;55.932;2023-05-10T09:49:59;31.95;;;22.63;;
78931;SDS011;68331;53.362;55.932;2023-05-10T09:52:48;29.90;;;21.00;;
78931;SDS011;68331;53.362;55.932;2023-05-10T09:55:24;29.92;;;21.25;;
78931;SDS011;68331;53.362;55.932;2023-05-10T09:58:00;30.80;;;21.67;;
78931;SDS011;68331;53.362;55.932;2023-05-10T10:00:27;29.65;;;22.50;;
78931;SDS011;68331;53.362;55.932;2023-05-10T10:02:59;30.38;;;21.25;;
78931;SDS011;68331;53.362;55.932;2023-05-10T10:05:29;31.50;;;22.70;;
78931;SDS011;68331;53.362;55.932;2023-05-10T10:08:00;31.00;;;21.80;;
78931;SDS011;68331;53.362;55.932;2023-05-10T10:10:31;29.92;;;22.05;;
78931;SDS011;68331;53.362;55.932;2023-05-10T10:12:58;28.92;;;21.45;;
78931;SDS011;68331;53.362;55.932;2023-05-10T10:15:25;29.77;;;20.50;;
78931;SDS011;68331;53.362;55.932;2023-05-10T10:17:52;26.35;;;22.33;;
78931;SDS011;68331;53.362;55.932;2023-05-10T10:20:19;30.20;;;21.88;;
78931;SDS011;68331;53.362;55.932;2023-05-10T10:22:46;28.63;;;21.10;;
78931;SDS011;68331;53.362;55.932;2023-05-10T10:25:13;29.52;;;22.38;;
78931;SDS011;68331;53.362;55.932;2023-05-10T10:27:49;30.67;;;22.60;;
78931;SDS011;68331;53.362;55.932;2023-05-10T10:36:00;29.45;;;21.23;;
78931;SDS011;68331;53.362;55.932;2023-05-10T10:41:28;30.20;;;22.17;;
78931;SDS011;68331;53.362;55.932;2023-05-10T10:44:33;32.03;;;22.13;;
78931;SDS011;68331;53.362;55.932;2023-05-10T10:47:20;30.70;;;23.00;;
78931;SDS011;68331;53.362;55.932;2023-05-10T10:52:27;30.08;;;19.98;;
78931;SDS011;68331;53.362;55.932;2023-05-10T10:57:43;22.40;;;19.83;;
78931;SDS011;68331;53.362;55.932;2023-05-10T11:02:47;30.33;;;21.92;;
78931;SDS011;68331;53.362;55.932;2023-05-10T11:05:25;23.48;;;18.90;;
78931;SDS011;68331;53.362;55.932;2023-05-10T11:07:55;23.02;;;17.77;;
78931;SDS011;68331;53.362;55.932;2023-05-10T11:10:22;26.42;;;20.85;;
78931;SDS011;68331;53.362;55.932;2023-05-10T11:12:59;23.38;;;18.35;;
78931;SDS011;68331;53.362;55.932;2023-05-10T11:15:31;23.60;;;17.77;;
78931;SDS011;68331;53.362;55.932;2023-05-10T11:17:57;23.67;;;17.75;;
78931;SDS011;68331;53.362;55.932;2023-05-10T11:20:27;25.05;;;18.13;;
78931;SDS011;68331;53.362;55.932;2023-05-10T11:23:10;22.90;;;17.98;;
78931;SDS011;68331;53.362;55.932;2023-05-10T11:25:47;21.55;;;17.55;;
78931;SDS011;68331;53.362;55.932;2023-05-10T11:28:14;22.17;;;17.90;;
78931;SDS011;68331;53.362;55.932;2023-05-10T11:30:41;23.20;;;17.05;;
78931;SDS011;68331;53.362;55.932;2023-05-10T11:33:09;24.02;;;17.42;;
78931;SDS011;68331;53.362;55.932;2023-05-10T11:35:38;21.30;;;17.38;;
78931;SDS011;68331;53.362;55.932;2023-05-10T11:38:09;20.30;;;16.48;;
78931;SDS011;68331;53.362;55.932;2023-05-10T11:40:36;23.52;;;17.63;;
78931;SDS011;68331;53.362;55.932;2023-05-10T11:43:03;23.00;;;17.20;;
78931;SDS011;68331;53.362;55.932;2023-05-10T11:45:34;22.48;;;17.42;;
78931;SDS011;68331;53.362;55.932;2023-05-10T11:48:01;24.63;;;17.88;;
78931;SDS011;68331;53.362;55.932;2023-05-10T11:50:28;20.50;;;15.98;;
78931;SDS011;68331;53.362;55.932;2023-05-10T11:52:54;21.05;;;16.77;;
78931;SDS011;68331;53.362;55.932;2023-05-10T11:55:21;23.30;;;17.15;;
78931;SDS011;68331;53.362;55.932;2023-05-10T11:57:53;24.05;;;17.55;;
78931;SDS011;68331;53.362;55.932;2023-05-10T12:00:20;23.20;;;18.05;;
78931;SDS011;68331;53.362;55.932;2023-05-10T12:02:47;23.00;;;16.92;;
78931;SDS011;68331;53.362;55.932;2023-05-10T12:05:14;22.10;;;17.08;;
78931;SDS011;68331;53.362;55.932;2023-05-10T12:07:40;20.67;;;15.52;;
78931;SDS011;68331;53.362;55.932;2023-05-10T12:10:09;21.73;;;15.30;;
78931;SDS011;68331;53.362;55.932;2023-05-10T12:12:38;21.20;;;16.20;;
78931;SDS011;68331;53.362;55.932;2023-05-10T12:15:11;22.30;;;17.10;;
78931;SDS011;68331;53.362;55.932;2023-05-10T12:17:45;24.30;;;17.65;;
78931;SDS011;68331;53.362;55.932;2023-05-10T12:20:12;23.90;;;16.90;;
78931;SDS011;68331;53.362;55.932;2023-05-10T12:22:40;21.85;;;15.88;;
78931;SDS011;68331;53.362;55.932;2023-05-10T12:25:07;20.98;;;15.88;;
78931;SDS011;68331;53.362;55.932;2023-05-10T12:27:34;23.88;;;16.38;;
78931;SDS011;68331;53.362;55.932;2023-05-10T12:30:00;21.52;;;16.40;;
78931;SDS011;68331;53.362;55.932;2023-05-10T12:32:37;26.27;;;16.33;;
78931;SDS011;68331;53.362;55.932;2023-05-10T12:35:04;23.08;;;15.57;;
78931;SDS011;68331;53.362;55.932;2023-05-10T12:37:31;22.90;;;16.33;;
78931;SDS011;68331;53.362;55.932;2023-05-10T12:40:01;23.10;;;16.65;;
78931;SDS011;68331;53.362;55.932;2023-05-10T12:42:29;21.77;;;16.33;;
78931;SDS011;68331;53.362;55.932;2023-05-10T12:44:56;28.88;;;16.77;;
78931;SDS011;68331;53.362;55.932;2023-05-10T12:47:23;23.52;;;16.10;;
78931;SDS011;68331;53.362;55.932;2023-05-10T12:49:49;24.95;;;16.25;;
78931;SDS011;68331;53.362;55.932;2023-05-10T12:52:16;20.67;;;15.93;;
78931;SDS011;68331;53.362;55.932;2023-05-10T12:54:42;20.58;;;16.17;;
78931;SDS011;68331;53.362;55.932;2023-05-10T12:57:08;22.83;;;15.60;;
78931;SDS011;68331;53.362;55.932;2023-05-10T12:59:34;21.48;;;16.75;;
78931;SDS011;68331;53.362;55.932;2023-05-10T13:02:00;25.02;;;17.40;;
78931;SDS011;68331;53.362;55.932;2023-05-10T13:04:26;19.65;;;16.10;;
78931;SDS011;68331;53.362;55.932;2023-05-10T13:06:52;22.73;;;17.20;;
78931;SDS011;68331;53.362;55.932;2023-05-10T13:09:20;42.55;;;16.98;;
78931;SDS011;68331;53.362;55.932;2023-05-10T13:11:46;22.05;;;16.23;;
78931;SDS011;68331;53.362;55.932;2023-05-10T13:14:14;22.50;;;15.90;;
78931;SDS011;68331;53.362;55.932;2023-05-10T13:16:40;23.15;;;16.05;;
78931;SDS011;68331;53.362;55.932;2023-05-10T13:19:06;23.95;;;15.00;;
78931;SDS011;68331;53.362;55.932;2023-05-10T13:21:32;19.85;;;15.82;;
78931;SDS011;68331;53.362;55.932;2023-05-10T13:23:58;18.73;;;14.75;;
78931;SDS011;68331;53.362;55.932;2023-05-10T13:26:24;20.08;;;15.90;;
78931;SDS011;68331;53.362;55.932;2023-05-10T13:28:50;22.58;;;15.38;;
78931;SDS011;68331;53.362;55.932;2023-05-10T13:31:17;21.38;;;17.08;;
78931;SDS011;68331;53.362;55.932;2023-05-10T13:33:43;18.40;;;15.02;;
78931;SDS011;68331;53.362;55.932;2023-05-10T13:36:08;19.75;;;16.05;;
78931;SDS011;68331;53.362;55.932;2023-05-10T13:38:34;23.50;;;15.80;;
78931;SDS011;68331;53.362;55.932;2023-05-10T13:41:00;20.63;;;15.75;;
78931;SDS011;68331;53.362;55.932;2023-05-10T13:43:26;21.92;;;15.70;;
78931;SDS011;68331;53.362;55.932;2023-05-10T13:45:52;22.00;;;15.02;;
78931;SDS011;68331;53.362;55.932;2023-05-10T13:48:19;18.55;;;15.30;;
78931;SDS011;68331;53.362;55.932;2023-05-10T13:50:45;21.08;;;15.52;;
78931;SDS011;68331;53.362;55.932;2023-05-10T13:53:11;25.88;;;17.23;;
78931;SDS011;68331;53.362;55.932;2023-05-10T13:55:38;22.92;;;16.52;;
78931;SDS011;68331;53.362;55.932;2023-05-10T13:58:04;19.50;;;16.00;;
78931;SDS011;68331;53.362;55.932;2023-05-10T14:00:30;22.58;;;16.50;;
78931;SDS011;68331;53.362;55.932;2023-05-10T14:02:56;24.10;;;16.45;;
78931;SDS011;68331;53.362;55.932;2023-05-10T14:05:23;19.75;;;15.90;;
78931;SDS011;68331;53.362;55.932;2023-05-10T14:07:49;22.67;;;15.85;;
78931;SDS011;68331;53.362;55.932;2023-05-10T14:10:16;24.40;;;17.65;;
78931;SDS011;68331;53.362;55.932;2023-05-10T14:12:42;23.05;;;16.20;;
78931;SDS011;68331;53.362;55.932;2023-05-10T14:15:08;22.83;;;17.52;;
78931;SDS011;68331;53.362;55.932;2023-05-10T14:17:37;24.42;;;17.83;;
78931;SDS011;68331;53.362;55.932;2023-05-10T14:20:03;24.02;;;17.23;;
78931;SDS011;68331;53.362;55.932;2023-05-10T14:22:30;23.35;;;16.90;;
78931;SDS011;68331;53.362;55.932;2023-05-10T14:24:56;25.13;;;17.05;;
78931;SDS011;68331;53.362;55.932;2023-05-10T14:27:24;24.58;;;16.60;;
78931;SDS011;68331;53.362;55.932;2023-05-10T14:29:49;20.83;;;16.95;;
78931;SDS011;68331;53.362;55.932;2023-05-10T14:32:16;23.45;;;17.58;;
78931;SDS011;68331;53.362;55.932;2023-05-10T14:34:42;25.65;;;17.92;;
78931;SDS011;68331;53.362;55.932;2023-05-10T14:37:10;22.83;;;17.65;;
78931;SDS011;68331;53.362;55.932;2023-05-10T14:39:36;25.05;;;18.25;;
78931;SDS011;68331;53.362;55.932;2023-05-10T14:42:03;26.08;;;18.38;;
78931;SDS011;68331;53.362;55.932;2023-05-10T14:44:31;25.65;;;16.02;;
78931;SDS011;68331;53.362;55.932;2023-05-10T14:46:57;22.98;;;17.40;;
78931;SDS011;68331;53.362;55.932;2023-05-10T14:49:24;26.25;;;16.27;;